DAL2525 VVTS-VVCT
Flight info
| Callsign | DAL2525 |
|---|---|
| Flight time | 0h 27m |
| Altitude | 9000 |
| Route | TRN5A/25L TRN |
| Aircraft | E110/L-SDFGHRY/S |
Departure
| Time | 2026-04-24 06:25 |
|---|---|
| Airport | Tan Son Nhat International Airport (VVTS) |
Arrival
| Time | 2026-04-24 06:52 |
|---|---|
| Airport | Can Tho International Airport (VVCT) |
| Time | Latitude | Longitude | Altitude | Speed | Heading |
|---|---|---|---|---|---|
| 2026-04-24 06:25 | 10.76126 | 106.50445 | 1889 ft | 209 kts | 247° |
| 2026-04-24 06:25 | 10.75608 | 106.49071 | 2066 ft | 207 kts | 248° |
| 2026-04-24 06:25 | 10.75086 | 106.47694 | 2270 ft | 214 kts | 247° |
| 2026-04-24 06:26 | 10.74537 | 106.46263 | 2438 ft | 217 kts | 248° |
| 2026-04-24 06:26 | 10.74004 | 106.44841 | 2594 ft | 212 kts | 248° |
| 2026-04-24 06:26 | 10.73477 | 106.43459 | 2769 ft | 214 kts | 248° |
| 2026-04-24 06:26 | 10.72933 | 106.42047 | 2935 ft | 215 kts | 248° |
| 2026-04-24 06:27 | 10.72403 | 106.40637 | 3111 ft | 211 kts | 249° |
| 2026-04-24 06:27 | 10.71873 | 106.39246 | 3264 ft | 210 kts | 248° |
| 2026-04-24 06:27 | 10.71346 | 106.37847 | 3438 ft | 215 kts | 248° |
| 2026-04-24 06:27 | 10.70809 | 106.36436 | 3583 ft | 212 kts | 248° |
| 2026-04-24 06:28 | 10.70278 | 106.35050 | 3752 ft | 208 kts | 248° |
| 2026-04-24 06:28 | 10.69757 | 106.33686 | 3921 ft | 206 kts | 248° |
| 2026-04-24 06:28 | 10.69234 | 106.32314 | 4084 ft | 210 kts | 248° |
| 2026-04-24 06:28 | 10.68683 | 106.30936 | 4264 ft | 211 kts | 240° |
| 2026-04-24 06:29 | 10.67799 | 106.29748 | 4425 ft | 211 kts | 228° |
| 2026-04-24 06:29 | 10.66869 | 106.28597 | 4589 ft | 210 kts | 230° |
| 2026-04-24 06:29 | 10.65960 | 106.27437 | 4758 ft | 210 kts | 230° |
| 2026-04-24 06:29 | 10.65045 | 106.26280 | 4932 ft | 210 kts | 230° |
| 2026-04-24 06:30 | 10.64109 | 106.25117 | 4975 ft | 216 kts | 229° |
| 2026-04-24 06:30 | 10.63157 | 106.23916 | 4987 ft | 221 kts | 230° |
| 2026-04-24 06:30 | 10.62193 | 106.22696 | 4978 ft | 222 kts | 230° |
| 2026-04-24 06:30 | 10.61220 | 106.21472 | 4970 ft | 223 kts | 230° |
| 2026-04-24 06:31 | 10.60245 | 106.20261 | 4981 ft | 217 kts | 230° |
| 2026-04-24 06:31 | 10.59289 | 106.19064 | 4985 ft | 224 kts | 231° |
| 2026-04-24 06:31 | 10.58310 | 106.17834 | 4984 ft | 229 kts | 230° |
| 2026-04-24 06:31 | 10.57300 | 106.16557 | 4980 ft | 232 kts | 230° |
| 2026-04-24 06:32 | 10.56288 | 106.15291 | 4987 ft | 230 kts | 230° |
| 2026-04-24 06:32 | 10.55282 | 106.14026 | 4979 ft | 229 kts | 230° |
| 2026-04-24 06:32 | 10.54283 | 106.12768 | 4992 ft | 229 kts | 230° |
| 2026-04-24 06:32 | 10.53273 | 106.11515 | 4975 ft | 228 kts | 230° |
| 2026-04-24 06:33 | 10.52275 | 106.10255 | 4980 ft | 230 kts | 230° |
| 2026-04-24 06:33 | 10.51267 | 106.08989 | 4977 ft | 230 kts | 230° |
| 2026-04-24 06:33 | 10.50262 | 106.07731 | 4976 ft | 229 kts | 230° |
| 2026-04-24 06:33 | 10.49259 | 106.06473 | 4975 ft | 229 kts | 230° |
| 2026-04-24 06:34 | 10.48256 | 106.05217 | 4975 ft | 228 kts | 229° |
| 2026-04-24 06:34 | 10.47098 | 106.04126 | 4971 ft | 227 kts | 218° |
| 2026-04-24 06:34 | 10.45884 | 106.03095 | 4968 ft | 228 kts | 220° |
| 2026-04-24 06:34 | 10.44689 | 106.02045 | 4967 ft | 227 kts | 219° |
| 2026-04-24 06:35 | 10.43421 | 106.01149 | 4958 ft | 225 kts | 200° |
| 2026-04-24 06:35 | 10.41891 | 106.00999 | 4961 ft | 223 kts | 168° |
| 2026-04-24 06:35 | 10.40370 | 106.01178 | 4992 ft | 222 kts | 188° |
| 2026-04-24 06:35 | 10.38997 | 106.00471 | 4991 ft | 228 kts | 224° |
| 2026-04-24 06:36 | 10.38233 | 105.99055 | 4980 ft | 233 kts | 252° |
| 2026-04-24 06:36 | 10.37754 | 105.97478 | 4894 ft | 233 kts | 248° |
| 2026-04-24 06:36 | 10.37020 | 105.96010 | 4820 ft | 234 kts | 235° |
| 2026-04-24 06:36 | 10.36069 | 105.94668 | 4740 ft | 234 kts | 232° |
| 2026-04-24 06:37 | 10.35121 | 105.93320 | 4674 ft | 234 kts | 234° |
| 2026-04-24 06:37 | 10.34217 | 105.91967 | 4607 ft | 234 kts | 235° |
| 2026-04-24 06:37 | 10.33309 | 105.90589 | 4537 ft | 235 kts | 235° |
| 2026-04-24 06:37 | 10.32391 | 105.89217 | 4466 ft | 235 kts | 234° |
| 2026-04-24 06:38 | 10.31474 | 105.87833 | 4392 ft | 237 kts | 235° |
| 2026-04-24 06:38 | 10.30548 | 105.86459 | 4312 ft | 235 kts | 235° |
| 2026-04-24 06:38 | 10.29631 | 105.85093 | 4239 ft | 234 kts | 235° |
| 2026-04-24 06:38 | 10.28717 | 105.83720 | 4169 ft | 234 kts | 234° |
| 2026-04-24 06:39 | 10.27805 | 105.82354 | 4101 ft | 234 kts | 235° |
| 2026-04-24 06:39 | 10.26888 | 105.80980 | 4003 ft | 235 kts | 234° |
| 2026-04-24 06:39 | 10.25969 | 105.79615 | 3935 ft | 234 kts | 235° |
| 2026-04-24 06:39 | 10.25054 | 105.78240 | 3864 ft | 235 kts | 235° |
| 2026-04-24 06:40 | 10.24135 | 105.76867 | 3788 ft | 235 kts | 234° |
| 2026-04-24 06:40 | 10.23213 | 105.75490 | 3712 ft | 235 kts | 235° |
| 2026-04-24 06:40 | 10.22297 | 105.74116 | 3646 ft | 235 kts | 235° |
| 2026-04-24 06:40 | 10.21380 | 105.72749 | 3568 ft | 234 kts | 234° |
| 2026-04-24 06:41 | 10.20462 | 105.71380 | 3501 ft | 235 kts | 234° |
| 2026-04-24 06:41 | 10.19545 | 105.70002 | 3424 ft | 235 kts | 234° |
| 2026-04-24 06:41 | 10.18635 | 105.68649 | 3351 ft | 236 kts | 235° |
| 2026-04-24 06:41 | 10.17712 | 105.67272 | 3282 ft | 236 kts | 235° |
| 2026-04-24 06:42 | 10.16789 | 105.65892 | 3207 ft | 236 kts | 235° |
| 2026-04-24 06:42 | 10.15869 | 105.64518 | 3136 ft | 234 kts | 235° |
| 2026-04-24 06:42 | 10.14953 | 105.63151 | 3065 ft | 234 kts | 235° |
| 2026-04-24 06:42 | 10.14040 | 105.61782 | 2988 ft | 234 kts | 234° |
| 2026-04-24 06:43 | 10.13125 | 105.60414 | 2914 ft | 235 kts | 235° |
| 2026-04-24 06:43 | 10.12208 | 105.59052 | 2843 ft | 226 kts | 234° |
| 2026-04-24 06:43 | 10.11373 | 105.57799 | 2761 ft | 203 kts | 235° |
| 2026-04-24 06:43 | 10.10602 | 105.56662 | 2687 ft | 191 kts | 235° |
| 2026-04-24 06:44 | 10.09865 | 105.55571 | 2608 ft | 185 kts | 236° |
| 2026-04-24 06:44 | 10.09152 | 105.54501 | 2529 ft | 183 kts | 234° |
| 2026-04-24 06:44 | 10.08444 | 105.53444 | 2504 ft | 178 kts | 234° |
| 2026-04-24 06:44 | 10.07756 | 105.52425 | 2502 ft | 177 kts | 235° |
| 2026-04-24 06:45 | 10.07059 | 105.51405 | 2496 ft | 174 kts | 231° |
| 2026-04-24 06:45 | 10.06134 | 105.50648 | 2501 ft | 168 kts | 204° |
| 2026-04-24 06:45 | 10.05039 | 105.50364 | 2486 ft | 157 kts | 181° |
| 2026-04-24 06:45 | 10.03993 | 105.50516 | 2500 ft | 151 kts | 159° |
| 2026-04-24 06:46 | 10.03052 | 105.51011 | 2477 ft | 154 kts | 149° |
| 2026-04-24 06:46 | 10.02115 | 105.51552 | 2480 ft | 155 kts | 151° |
| 2026-04-24 06:46 | 10.01186 | 105.52086 | 2491 ft | 153 kts | 150° |
| 2026-04-24 06:46 | 10.00274 | 105.52623 | 2496 ft | 147 kts | 148° |
| 2026-04-24 06:47 | 9.99550 | 105.53284 | 2497 ft | 137 kts | 125° |
| 2026-04-24 06:47 | 9.99232 | 105.54190 | 2482 ft | 136 kts | 97° |
| 2026-04-24 06:47 | 9.99423 | 105.55083 | 2504 ft | 131 kts | 63° |
| 2026-04-24 06:47 | 9.99845 | 105.55908 | 2506 ft | 132 kts | 67° |
| 2026-04-24 06:48 | 10.00275 | 105.56734 | 2506 ft | 134 kts | 65° |
| 2026-04-24 06:48 | 10.00732 | 105.57546 | 2494 ft | 134 kts | 62° |
| 2026-04-24 06:48 | 10.01201 | 105.58361 | 2424 ft | 137 kts | 64° |
| 2026-04-24 06:48 | 10.01682 | 105.59226 | 2260 ft | 145 kts | 62° |
| 2026-04-24 06:49 | 10.02199 | 105.60125 | 2073 ft | 148 kts | 61° |
| 2026-04-24 06:49 | 10.02720 | 105.61032 | 1887 ft | 148 kts | 63° |
| 2026-04-24 06:49 | 10.03239 | 105.61953 | 1690 ft | 150 kts | 62° |
| 2026-04-24 06:49 | 10.03753 | 105.62832 | 1506 ft | 143 kts | 63° |
| 2026-04-24 06:50 | 10.04235 | 105.63694 | 1331 ft | 136 kts | 63° |
| 2026-04-24 06:50 | 10.04679 | 105.64482 | 1168 ft | 119 kts | 64° |
| 2026-04-24 06:50 | 10.04957 | 105.64958 | 1062 ft | 116 kts | 62° |
| 2026-04-24 06:50 | 10.05345 | 105.65646 | 918 ft | 109 kts | 64° |
| 2026-04-24 06:51 | 10.05856 | 105.66525 | 748 ft | 111 kts | 64° |
| 2026-04-24 06:51 | 10.06226 | 105.67196 | 621 ft | 107 kts | 62° |
| 2026-04-24 06:51 | 10.06487 | 105.67640 | 517 ft | 108 kts | 60° |
| 2026-04-24 06:51 | 10.06851 | 105.68295 | 383 ft | 105 kts | 62° |
| 2026-04-24 06:52 | 10.07212 | 105.68921 | 249 ft | 102 kts | 63° |
| 2026-04-24 06:52 | 10.07566 | 105.69551 | 109 ft | 103 kts | 62° |
| 2026-04-24 06:52 | 10.07928 | 105.70174 | 16 ft | 97 kts | 62° |
| 2026-04-24 06:52 | 10.08127 | 105.70545 | 16 ft | 28 kts | 63° |
| 2026-04-24 06:53 | 10.08178 | 105.70644 | 17 ft | 14 kts | 57° |
| 2026-04-24 06:53 | 10.08197 | 105.70698 | 17 ft | 6 kts | 97° |
| 2026-04-24 06:53 | 10.08164 | 105.70751 | 16 ft | 10 kts | 139° |
| 2026-04-24 06:53 | 10.08165 | 105.70796 | 16 ft | 5 kts | 67° |
| 2026-04-24 06:54 | 10.08170 | 105.70808 | 16 ft | 0 kts | 66° |